Time;durP1;ratioP1;P1;durP2;ratioP2;P2;SDS_P1;SDS_P2;PMS_P1;PMS_P2;Temp;Humidity;BMP_temperature;BMP_pressure;BME280_temperature;BME280_humidity;BME280_pressure;Samples;Min_cycle;Max_cycle;Signal;HPM_P1;HPM_P2
2023/08/29 00:01:26;;;;;;;4.65;4.00;;;16.50;99.90;;;-141.84;73.07;20545.56;5022592;28;20249;-63
2023/08/29 00:03:56;;;;;;;4.22;3.88;;;16.50;99.90;;;-141.84;73.66;20508.97;5022545;28;20225;-62
2023/08/29 00:06:24;;;;;;;4.00;3.70;;;16.40;99.90;;;-141.84;72.85;20519.13;5022295;28;20233;-62
2023/08/29 00:08:52;;;;;;;4.40;4.00;;;16.40;99.90;;;-141.84;74.00;20496.78;5017459;28;20296;-62
2023/08/29 00:11:21;;;;;;;4.10;3.80;;;16.30;99.90;;;-141.84;74.22;20488.63;5022655;28;20301;-61
2023/08/29 00:13:49;;;;;;;4.40;4.00;;;16.30;99.90;;;-141.84;74.56;20492.72;5026356;28;20667;-62
2023/08/29 00:16:17;;;;;;;4.15;3.42;;;16.20;99.90;;;-141.84;75.16;20452.06;5022036;28;20236;-62
2023/08/29 00:18:47;;;;;;;3.75;3.45;;;16.20;99.90;;;-141.84;75.91;20458.16;5014287;28;20686;-62
2023/08/29 00:21:15;;;;;;;3.85;3.53;;;16.20;99.90;;;-141.84;76.26;20445.94;5022248;28;20763;-61
2023/08/29 00:23:43;;;;;;;3.70;3.40;;;16.20;99.90;;;-141.84;76.26;20480.50;5022012;28;20703;-62
2023/08/29 00:26:11;;;;;;;3.65;3.35;;;16.20;99.90;;;-141.84;76.70;20445.94;5021606;28;20666;-63
2023/08/29 00:28:40;;;;;;;4.20;3.53;;;16.20;99.90;;;-141.84;77.07;20498.81;5014453;28;20428;-62
2023/08/29 00:31:08;;;;;;;4.55;3.50;;;16.20;99.90;;;-141.84;76.76;20431.72;5021557;28;20643;-62
2023/08/29 00:33:37;;;;;;;3.80;3.30;;;16.20;99.90;;;-141.84;76.85;20470.34;5031116;28;20221;-62
2023/08/29 00:36:06;;;;;;;3.45;3.15;;;16.20;99.90;;;-141.84;76.96;20462.22;5039560;28;20759;-62
2023/08/29 00:38:35;;;;;;;3.40;3.20;;;16.20;99.90;;;-141.84;77.11;20452.06;5014995;28;20242;-62
2023/08/29 00:41:03;;;;;;;4.00;3.60;;;16.20;99.90;;;-141.84;77.71;20443.91;5021853;28;20230;-62
2023/08/29 00:43:32;;;;;;;5.65;3.70;;;16.20;99.90;;;-141.84;78.25;20443.91;5021512;28;20299;-61
2023/08/29 00:46:00;;;;;;;3.80;3.50;;;16.20;99.90;;;-141.84;79.06;20423.59;5022193;28;20245;-63
2023/08/29 00:48:28;;;;;;;3.95;3.55;;;16.20;99.90;;;-141.84;80.13;20387.00;5019112;28;20226;-62
2023/08/29 00:50:58;;;;;;;4.60;4.20;;;16.10;99.90;;;-141.84;81.00;20403.25;5026038;28;20268;-61
2023/08/29 00:53:29;;;;;;;4.13;3.83;;;16.10;99.90;;;-141.84;81.79;20374.81;5025970;28;20297;-63
2023/08/29 00:55:57;;;;;;;4.10;3.78;;;16.00;99.90;;;-141.84;82.90;20360.59;5025161;28;20618;-62
2023/08/29 00:58:26;;;;;;;4.43;4.03;;;15.90;99.90;;;-141.84;83.51;20350.41;5024970;28;20317;-64
2023/08/29 01:00:54;;;;;;;4.43;4.13;;;15.90;99.90;;;-141.84;84.16;20317.91;5021891;28;20249;-62
2023/08/29 01:03:23;;;;;;;6.32;4.90;;;15.90;99.90;;;-141.84;84.31;20356.50;5025309;28;20781;-62
2023/08/29 01:05:51;;;;;;;5.30;4.80;;;15.80;99.90;;;-141.84;84.42;20391.06;5025677;28;20214;-62
2023/08/29 01:08:19;;;;;;;5.07;4.57;;;15.80;99.90;;;-141.84;84.01;20364.66;5025781;28;20595;-61
2023/08/29 01:11:02;;;;;;;5.22;4.82;;;15.80;99.90;;;-141.84;84.61;20317.91;5017739;28;20258;-63
2023/08/29 01:13:38;;;;;;;4.97;4.57;;;15.80;99.90;;;-141.84;85.33;20348.38;5039389;28;20304;-62
2023/08/29 01:16:11;;;;;;;5.47;4.75;;;15.80;99.90;;;-141.84;85.50;20346.34;5045324;28;20770;-63
2023/08/29 01:18:41;;;;;;;5.97;5.30;;;15.80;99.90;;;-141.84;85.85;20317.91;5023482;28;20720;-61
2023/08/29 01:21:31;;;;;;;6.13;5.43;;;15.80;99.90;;;-141.84;85.22;20340.25;5025610;28;20236;-62
2023/08/29 01:24:19;;;;;;;6.10;5.50;;;15.80;99.90;;;-141.84;84.74;20346.34;5025010;28;20301;-62
2023/08/29 01:26:50;;;;;;;5.70;5.20;;;15.70;99.90;;;-141.84;85.24;20330.09;5017572;28;20296;-63
2023/08/29 01:29:21;;;;;;;5.25;4.85;;;15.70;99.90;;;-141.84;84.99;20317.91;5040026;28;20290;-62
2023/08/29 01:31:51;;;;;;;5.13;4.63;;;15.80;99.90;;;-141.84;85.79;20289.44;5045019;28;20268;-62
2023/08/29 01:34:19;;;;;;;5.95;5.45;;;15.80;99.90;;;-141.84;86.16;20309.75;5044993;28;20300;-62
2023/08/29 01:36:48;;;;;;;6.05;5.43;;;15.60;99.90;;;-141.84;85.54;20309.75;5028849;28;22773;-61
2023/08/29 01:39:16;;;;;;;5.20;4.80;;;15.70;99.90;;;-141.84;86.21;20321.97;5024408;28;20395;-61
2023/08/29 01:41:44;;;;;;;6.65;5.32;;;15.70;99.90;;;-141.84;86.97;20334.16;5025098;28;20198;-63
2023/08/29 01:44:14;;;;;;;6.22;5.68;;;15.70;99.90;;;-141.84;86.96;20301.63;5024077;28;20523;-61
2023/08/29 01:46:42;;;;;;;5.95;5.45;;;15.70;99.90;;;-141.84;87.10;20289.44;5016428;28;20253;-61
2023/08/29 01:49:12;;;;;;;5.78;5.28;;;15.60;99.90;;;-141.84;87.45;20287.41;5024673;28;20233;-61
2023/08/29 01:51:40;;;;;;;5.93;5.43;;;15.60;99.90;;;-141.84;88.33;20324.00;5024866;28;20275;-62
2023/08/29 01:54:08;;;;;;;6.22;5.72;;;15.60;99.90;;;-141.84;88.77;20307.72;5024282;28;20218;-60
2023/08/29 01:56:40;;;;;;;6.05;5.55;;;15.60;99.90;;;-141.84;88.47;20301.63;5017473;28;20272;-62
2023/08/29 01:59:09;;;;;;;8.38;6.53;;;15.60;99.90;;;-141.84;89.02;20250.81;5023986;28;20791;-62
2023/08/29 02:01:40;;;;;;;7.38;6.68;;;15.60;99.90;;;-141.84;89.18;20295.53;5024208;28;20329;-62
2023/08/29 02:04:08;;;;;;;6.40;5.80;;;15.50;99.90;;;-141.84;89.36;20250.81;5024391;28;20276;-63
2023/08/29 02:06:37;;;;;;;8.10;7.30;;;15.50;99.90;;;-141.84;89.54;20230.50;5016005;28;20222;-62
2023/08/29 02:09:06;;;;;;;6.68;6.07;;;15.50;99.90;;;-141.84;89.59;20246.75;5024379;28;20749;-61
2023/08/29 02:11:34;;;;;;;7.30;6.60;;;15.50;99.90;;;-141.84;90.09;20248.78;5024958;28;20214;-61
2023/08/29 02:14:03;;;;;;;7.43;6.82;;;15.50;99.90;;;-141.84;89.74;20226.44;5023453;28;20319;-62
2023/08/29 02:16:31;;;;;;;7.15;6.45;;;15.50;99.90;;;-141.84;89.12;20269.13;5015431;28;20230;-61
2023/08/29 02:19:02;;;;;;;7.15;6.55;;;15.50;99.90;;;-141.84;89.54;20277.25;5023696;28;20280;-63
2023/08/29 02:21:30;;;;;;;8.63;7.78;;;15.50;99.90;;;-141.84;89.29;20283.34;5023931;28;20308;-63
2023/08/29 02:23:59;;;;;;;9.50;6.80;;;15.60;99.90;;;-141.84;89.16;20287.41;5023807;28;20296;-63
2023/08/29 02:26:27;;;;;;;7.88;7.07;;;15.60;99.90;;;-141.84;89.23;20267.09;5032333;28;20714;-61
2023/08/29 02:28:55;;;;;;;7.95;7.20;;;15.50;99.90;;;-141.84;89.54;20226.44;5025324;28;20304;-62
2023/08/29 02:31:23;;;;;;;7.57;6.93;;;15.50;99.90;;;-141.84;89.79;20232.53;5023640;28;20321;-62
2023/08/29 02:33:53;;;;;;;7.40;6.82;;;15.50;99.90;;;-141.84;89.90;20236.59;5023770;28;20265;-62
2023/08/29 02:36:23;;;;;;;7.95;7.25;;;15.50;99.90;;;-141.84;89.77;20226.44;5010776;28;20278;-62
2023/08/29 02:38:53;;;;;;;8.45;7.75;;;15.40;99.90;;;-141.84;89.27;20193.91;4978174;28;20243;-62
2023/08/29 02:41:21;;;;;;;8.23;6.90;;;15.40;99.90;;;-141.84;88.65;20220.34;4984862;28;20786;-61
2023/08/29 02:43:49;;;;;;;8.15;7.40;;;15.30;99.90;;;-141.84;88.68;20224.41;4984201;28;20241;-62
2023/08/29 02:46:17;;;;;;;8.50;7.60;;;15.30;99.90;;;-141.84;88.42;20226.44;4984199;28;20227;-62
2023/08/29 02:48:46;;;;;;;8.63;7.82;;;;;;;-141.84;88.43;20267.09;4976481;28;20234;-62
2023/08/29 02:51:14;;;;;;;8.63;7.93;;;15.40;99.90;;;-141.84;88.43;20248.78;4991650;28;20230;-63
2023/08/29 02:53:44;;;;;;;8.70;7.90;;;15.40;99.90;;;-141.84;87.44;20246.75;5023711;28;20313;-62
2023/08/29 02:56:12;;;;;;;8.95;8.25;;;15.40;99.90;;;-141.84;87.66;20267.09;5023516;28;20674;-62
2023/08/29 02:58:41;;;;;;;8.90;8.10;;;15.40;99.90;;;-141.84;86.97;20236.59;5016114;28;20229;-61
2023/08/29 03:01:12;;;;;;;10.50;8.38;;;15.40;99.90;;;-141.84;86.62;20216.25;5023443;28;20230;-62
2023/08/29 03:03:40;;;;;;;9.00;8.15;;;15.30;99.90;;;-141.84;86.94;20252.84;5023183;28;20225;-62
2023/08/29 03:06:09;;;;;;;8.48;7.78;;;15.30;99.90;;;-141.84;86.72;20263.00;5022924;28;21210;-61
2023/08/29 03:08:37;;;;;;;8.73;7.93;;;15.40;99.90;;;-141.84;86.59;20240.66;5015755;28;20744;-62
2023/08/29 03:11:07;;;;;;;8.65;7.88;;;;;;;-141.84;86.62;20256.91;5022371;28;20284;-61
2023/08/29 03:13:35;;;;;;;8.02;7.32;;;;;;;-141.84;86.66;20258.94;5025851;28;20315;-61
2023/08/29 03:16:12;;;;;;;8.57;7.80;;;;;;;-141.84;87.05;20232.53;5042937;28;20316;-62
2023/08/29 03:18:41;;;;;;;9.30;8.32;;;;;;;-141.84;87.40;20220.34;5020806;28;20233;-61
2023/08/29 03:21:10;;;;;;;8.77;8.07;;;;;;;-141.84;87.33;20250.81;5022665;28;20308;-61
2023/08/29 03:23:38;;;;;;;9.70;8.82;;;;;;;-141.84;87.46;20252.84;5033882;28;20256;-61
2023/08/29 03:26:10;;;;;;;9.13;7.75;;;;;;;-141.84;88.26;20224.41;5022677;28;20268;-61
2023/08/29 03:28:39;;;;;;;9.65;8.65;;;;;;;-141.84;88.77;20256.91;5015266;28;20729;-62
2023/08/29 03:31:11;;;;;;;9.60;8.70;;;;;;;-141.84;89.09;20230.50;5022789;28;20268;-61
2023/08/29 03:33:41;;;;;;;8.77;7.97;;;;;;;-141.84;89.61;20222.38;5022923;28;20234;-62
2023/08/29 03:36:10;;;;;;;10.35;9.27;;;;;;;-141.84;90.03;20206.09;5022305;28;20241;-62
2023/08/29 03:38:40;;;;;;;10.90;9.70;;;;;;;-141.84;90.14;20216.25;5015165;28;20645;-62
2023/08/29 03:41:10;;;;;;;9.93;9.02;;;;;;;-141.84;90.55;20228.47;5022188;28;20283;-62
2023/08/29 03:43:38;;;;;;;10.38;9.43;;;;;;;-141.84;90.80;20208.13;5023018;28;20246;-62
2023/08/29 03:46:08;;;;;;;11.60;10.65;;;;;;;-141.84;91.23;20195.94;5022592;28;20283;-62
2023/08/29 03:48:38;;;;;;;11.70;10.60;;;;;;;-141.84;91.20;20179.69;5014782;28;20306;-62
2023/08/29 03:51:08;;;;;;;13.02;11.70;;;;;;;-141.84;90.85;20208.13;5022402;28;20233;-61
2023/08/29 03:53:38;;;;;;;11.77;10.68;;;;;;;-141.84;90.68;20214.22;5023039;28;20295;-62
2023/08/29 03:56:09;;;;;;;12.40;11.18;;;;;;;-141.84;91.00;20181.72;5022775;28;20234;-62
2023/08/29 03:58:37;;;;;;;12.07;10.98;;;;;;;-141.84;91.50;20222.38;5014698;28;20236;-61
2023/08/29 04:01:07;;;;;;;13.60;12.32;;;;;;;-141.84;91.85;20175.63;5022433;28;20244;-61
2023/08/29 04:03:36;;;;;;;14.13;12.73;;;;;;;-141.84;91.92;20187.81;5022081;28;20313;-61
2023/08/29 04:06:05;;;;;;;13.32;12.10;;;;;;;-141.84;92.17;20175.63;5029538;28;20308;-62
2023/08/29 04:08:33;;;;;;;15.07;13.48;;;;;;;-141.84;92.10;20187.81;5014756;28;20260;-61
2023/08/29 04:11:04;;;;;;;16.17;13.48;;;;;;;-141.84;92.24;20200.00;5022476;28;20313;-62
2023/08/29 04:13:35;;;;;;;14.15;12.65;;;;;;;-141.84;92.36;20175.63;5024565;28;20702;-62
2023/08/29 04:16:04;;;;;;;13.93;12.57;;;;;;;-141.84;92.40;20163.41;5042175;28;20236;-62
2023/08/29 04:18:33;;;;;;;15.35;13.85;;;;;;;-141.84;92.51;20187.81;5029516;28;20236;-61
2023/08/29 04:21:01;;;;;;;15.68;14.27;;;;;;;-141.84;92.39;20159.34;5042080;28;20724;-61
2023/08/29 04:23:30;;;;;;;15.77;14.20;;;;;;;-141.84;92.07;20173.59;5038294;28;20441;-61
2023/08/29 04:26:00;;;;;;;15.25;13.73;;;;;;;-141.84;92.10;20163.41;5025962;28;20225;-61
2023/08/29 04:28:30;;;;;;;14.65;13.25;;;;;;;-141.84;92.14;20187.81;5020011;28;20261;-61
2023/08/29 04:31:08;;;;;;;16.70;14.90;;;;;;;-141.84;91.74;20224.41;5025799;28;20634;-61
2023/08/29 04:33:36;;;;;;;15.80;14.30;;;;;;;-141.84;90.98;20216.25;5026197;28;20317;-62
2023/08/29 04:36:05;;;;;;;15.13;13.73;;;;;;;-141.84;91.15;20193.91;5025327;28;20222;-62
2023/08/29 04:38:36;;;;;;;14.63;13.32;;;15.40;99.90;;;-141.84;91.29;20159.34;5017777;28;20370;-62
2023/08/29 04:41:04;;;;;;;14.07;12.82;;;15.30;99.90;;;-141.84;91.78;20128.88;5025642;28;20238;-62
2023/08/29 04:43:33;;;;;;;13.48;12.18;;;15.20;99.90;;;-141.84;91.94;20155.28;5025675;28;20241;-61
2023/08/29 04:46:02;;;;;;;14.15;12.73;;;15.10;99.90;;;-141.84;92.26;20141.06;5025980;28;20249;-61
2023/08/29 04:48:31;;;;;;;16.15;14.63;;;15.10;99.90;;;-141.84;92.15;20122.78;5017867;28;20229;-62
2023/08/29 04:50:59;;;;;;;14.70;13.40;;;;;;;-141.84;92.46;20153.25;5025664;28;20288;-62
2023/08/29 04:53:28;;;;;;;13.80;12.60;;;;;;;-141.84;92.38;20177.66;5025648;28;20214;-62
2023/08/29 04:56:00;;;;;;;15.65;14.15;;;;;;;-141.84;92.44;20161.38;5025127;28;20777;-61
2023/08/29 04:58:30;;;;;;;14.52;13.10;;;;;;;-141.84;92.44;20171.56;5018576;28;20364;-62
2023/08/29 05:01:00;;;;;;;15.13;13.48;;;;;;;-141.84;92.76;20167.47;5026096;28;20328;-63
2023/08/29 05:03:30;;;;;;;14.95;13.60;;;;;;;-141.84;92.58;20155.28;5025574;28;20317;-62
2023/08/29 05:05:59;;;;;;;13.93;12.63;;;;;;;-141.84;92.44;20183.75;5025613;28;20225;-62
2023/08/29 05:08:27;;;;;;;12.18;11.10;;;;;;;-141.84;92.12;20108.53;5022755;28;20198;-62
2023/08/29 05:10:56;;;;;;;12.82;11.73;;;;;;;-141.84;92.18;20145.13;5024352;28;20328;-62
2023/08/29 05:13:25;;;;;;;12.52;11.32;;;;;;;-141.84;92.17;20189.84;5025099;28;20321;-63
2023/08/29 05:15:53;;;;;;;12.73;11.50;;;;;;;-141.84;91.65;20187.81;5025430;28;20660;-63
2023/08/29 05:18:22;;;;;;;11.50;10.43;;;;;;;-141.84;92.08;20167.47;5031064;28;20343;-62
2023/08/29 05:20:52;;;;;;;11.93;10.88;;;;;;;-141.84;92.30;20132.94;5037322;28;20216;-61
2023/08/29 05:23:23;;;;;;;11.07;10.07;;;;;;;-141.84;92.18;20122.78;5038962;28;20575;-61
2023/08/29 05:25:51;;;;;;;12.02;9.95;;;;;;;-141.84;91.94;20195.94;5024619;28;20604;-61
2023/08/29 05:28:20;;;;;;;11.45;9.90;;;15.30;99.90;;;-141.84;92.06;20145.13;5025008;28;20249;-61
2023/08/29 05:30:48;;;;;;;12.13;10.70;;;15.10;99.90;;;-141.84;91.93;20155.28;5017226;28;27402;-61
2023/08/29 05:33:16;;;;;;;10.70;9.68;;;15.10;99.90;;;-141.84;92.06;20181.72;5025142;28;20252;-61
2023/08/29 05:35:45;;;;;;;9.95;9.05;;;15.10;99.90;;;-141.84;92.04;20161.38;5024787;28;20230;-61
2023/08/29 05:38:14;;;;;;;11.75;10.13;;;15.10;99.90;;;-141.84;91.51;20134.97;5004660;28;20289;-62
2023/08/29 05:40:42;;;;;;;11.25;10.15;;;15.10;99.90;;;-141.84;91.51;20169.53;4996572;28;20309;-60
2023/08/29 05:43:10;;;;;;;10.82;9.88;;;15.10;99.90;;;-141.84;91.69;20169.53;5004669;28;20269;-61
2023/08/29 05:45:42;;;;;;;10.30;9.40;;;15.10;99.90;;;-141.84;91.85;20151.22;5005211;28;20676;-61
2023/08/29 05:48:10;;;;;;;10.52;9.57;;;15.10;99.90;;;-141.84;92.22;20134.97;5005012;28;20309;-61
2023/08/29 05:50:40;;;;;;;9.57;8.57;;;15.10;99.90;;;-141.84;92.03;20137.00;4997976;28;20215;-61
2023/08/29 05:53:08;;;;;;;9.82;8.93;;;15.10;99.90;;;-141.84;91.49;20183.75;5022241;28;20648;-61
2023/08/29 05:55:37;;;;;;;9.95;8.95;;;15.10;99.90;;;-141.84;91.62;20189.84;5019825;28;20233;-61
2023/08/29 05:58:06;;;;;;;10.95;9.95;;;15.20;99.90;;;-141.84;91.77;20191.88;5024329;28;20276;-60
2023/08/29 06:00:35;;;;;;;13.85;9.25;;;15.20;99.90;;;-141.84;90.99;20171.56;5016374;28;20252;-60
2023/08/29 06:03:04;;;;;;;10.23;9.23;;;15.20;99.90;;;-141.84;91.42;20171.56;5024460;28;20221;-60
2023/08/29 06:05:32;;;;;;;10.20;9.20;;;15.20;99.90;;;-141.84;90.56;20183.75;5024883;28;20677;-60
2023/08/29 06:08:01;;;;;;;9.75;8.63;;;15.30;99.90;;;-141.84;89.57;20232.53;5024228;28;20794;-61
2023/08/29 06:10:47;;;;;;;8.52;7.65;;;15.40;99.90;;;-141.84;90.17;20159.34;5016116;28;20760;-60
2023/08/29 06:13:15;;;;;;;9.68;8.30;;;15.30;99.90;;;-141.84;90.51;20179.69;5024032;28;20223;-61
2023/08/29 06:15:44;;;;;;;10.27;8.55;;;15.30;99.90;;;-141.84;90.88;20167.47;5043806;28;20312;-64
2023/08/29 06:18:12;;;;;;;8.68;7.75;;;15.30;99.90;;;-141.84;90.94;20155.28;5038480;28;20267;-63
2023/08/29 06:20:40;;;;;;;9.60;8.68;;;15.20;99.90;;;-141.84;90.36;20171.56;5034922;28;20259;-64
2023/08/29 06:23:08;;;;;;;9.32;8.50;;;15.30;99.90;;;-141.84;90.21;20145.13;5023577;28;20269;-64
2023/08/29 06:25:37;;;;;;;9.38;8.48;;;15.40;99.90;;;-141.84;90.55;20212.19;5023367;28;20284;-65
2023/08/29 06:28:06;;;;;;;9.30;8.43;;;15.30;99.90;;;-141.84;90.41;20179.69;5023461;28;20317;-64
2023/08/29 06:30:36;;;;;;;8.85;7.95;;;15.30;99.90;;;-141.84;90.86;20163.41;5015754;28;20222;-64
2023/08/29 06:33:06;;;;;;;9.05;8.18;;;15.30;99.90;;;-141.84;91.18;20250.81;5024020;28;20220;-65
2023/08/29 06:35:38;;;;;;;8.57;7.88;;;15.40;99.90;;;-141.84;89.73;20206.09;5025930;28;20209;-65
2023/08/29 06:38:07;;;;;;;7.97;7.28;;;15.40;99.90;;;-141.84;88.60;20191.88;5043409;28;20225;-65
2023/08/29 06:40:36;;;;;;;7.30;6.68;;;15.40;99.90;;;-141.84;87.66;20216.25;5035360;28;20348;-66
2023/08/29 06:43:06;;;;;;;7.88;7.18;;;15.50;99.90;;;-141.84;88.34;20187.81;5043158;28;20328;-65
2023/08/29 06:45:34;;;;;;;7.85;7.15;;;15.40;99.90;;;-141.84;88.27;20195.94;5042523;28;20307;-65
2023/08/29 06:48:02;;;;;;;7.50;6.68;;;15.40;99.90;;;-141.84;87.97;20230.50;5043310;28;20208;-65
2023/08/29 06:50:31;;;;;;;7.63;6.95;;;15.40;99.90;;;-141.84;87.86;20191.88;5036447;28;20212;-64
2023/08/29 06:52:59;;;;;;;7.32;6.63;;;15.40;99.90;;;-141.84;87.73;20226.44;5024471;28;20628;-67
2023/08/29 06:55:27;;;;;;;7.30;6.60;;;15.40;99.90;;;-141.84;87.44;20206.09;5023080;28;20226;-64
2023/08/29 06:57:55;;;;;;;7.95;7.15;;;15.40;99.90;;;-141.84;87.97;20195.94;5023873;28;20297;-64
2023/08/29 07:00:25;;;;;;;7.70;7.03;;;15.40;99.90;;;-141.84;88.01;20197.97;5022899;28;20445;-65
2023/08/29 07:02:53;;;;;;;7.38;6.78;;;15.40;99.90;;;-141.84;88.03;20185.78;5021445;28;20216;-65
2023/08/29 07:05:21;;;;;;;7.68;7.05;;;15.40;99.90;;;-141.84;87.58;20222.38;5023669;28;20714;-64
2023/08/29 07:07:49;;;;;;;7.85;7.25;;;15.40;99.90;;;-141.84;87.30;20224.41;5023048;28;20269;-64
2023/08/29 07:10:18;;;;;;;8.25;7.57;;;15.40;99.90;;;-141.84;87.33;20204.06;5022889;28;20253;-65
2023/08/29 07:12:47;;;;;;;8.05;7.22;;;15.50;99.90;;;-141.84;87.76;20187.81;5015134;28;20450;-64
2023/08/29 07:15:15;;;;;;;7.22;6.40;;;15.40;99.90;;;-141.84;88.65;20179.69;5039162;28;20257;-63
2023/08/29 07:17:44;;;;;;;8.35;7.55;;;15.40;99.90;;;-141.84;89.16;20218.31;5036950;28;20194;-65
2023/08/29 07:20:13;;;;;;;7.70;7.00;;;15.40;99.90;;;-141.84;89.38;20216.25;5022644;28;20238;-64
2023/08/29 07:22:43;;;;;;;8.35;7.50;;;15.50;99.90;;;-141.84;88.03;20212.19;5015230;28;20287;-64
2023/08/29 07:25:12;;;;;;;7.90;7.10;;;15.40;99.90;;;-141.84;88.15;20236.59;5023336;28;20242;-64
2023/08/29 07:27:40;;;;;;;7.05;6.45;;;15.50;99.90;;;-141.84;87.30;20250.81;5023025;28;20310;-63
2023/08/29 07:30:14;;;;;;;7.20;6.60;;;15.50;99.90;;;-141.84;86.66;20248.78;5022717;28;20566;-63
2023/08/29 07:32:44;;;;;;;7.40;6.80;;;15.60;99.90;;;-141.84;86.73;20267.09;5015803;28;20297;-65
2023/08/29 07:35:13;;;;;;;7.15;6.53;;;15.60;99.90;;;-141.84;86.77;20210.16;5023298;28;20230;-64
2023/08/29 07:37:42;;;;;;;7.55;6.75;;;15.60;99.90;;;-141.84;87.53;20189.84;5041428;28;20235;-64
2023/08/29 07:40:11;;;;;;;7.30;6.70;;;15.50;99.90;;;-141.84;88.54;20226.44;5041935;28;20229;-64
2023/08/29 07:42:39;;;;;;;7.22;6.63;;;15.50;99.90;;;-141.84;88.06;20212.19;5034784;28;20308;-66
2023/08/29 07:45:09;;;;;;;7.82;7.03;;;15.60;99.90;;;-141.84;88.46;20216.25;5042661;28;20296;-65
2023/08/29 07:47:37;;;;;;;7.05;6.35;;;15.60;99.90;;;-141.84;88.91;20246.75;5043037;28;20298;-65
2023/08/29 07:50:08;;;;;;;7.28;6.68;;;15.60;99.90;;;-141.84;88.45;20226.44;5042560;28;20626;-64
2023/08/29 07:52:37;;;;;;;6.93;6.43;;;15.70;99.90;;;-141.84;87.63;20232.53;5019064;28;20230;-64
2023/08/29 07:55:10;;;;;;;7.95;6.68;;;15.60;99.90;;;-141.84;87.85;20252.84;5022772;28;20233;-64
2023/08/29 07:57:38;;;;;;;6.45;5.85;;;15.70;99.90;;;-141.84;87.03;20271.16;5022543;28;20320;-64
2023/08/29 08:00:10;;;;;;;7.30;6.57;;;15.80;99.90;;;-141.84;86.90;20246.75;5022423;28;20349;-63
2023/08/29 08:02:39;;;;;;;6.78;6.28;;;15.80;99.90;;;-141.84;86.73;20256.91;5014959;28;20290;-64
2023/08/29 08:05:11;;;;;;;6.90;6.20;;;15.80;99.90;;;-141.84;85.88;20252.84;5022323;28;20237;-64
2023/08/29 08:07:39;;;;;;;6.20;5.60;;;15.80;99.90;;;-141.84;85.84;20244.72;5022494;28;20321;-64
2023/08/29 08:10:09;;;;;;;6.43;5.85;;;15.90;99.90;;;-141.84;87.24;20263.00;5022649;28;20736;-64
2023/08/29 08:12:40;;;;;;;7.03;6.32;;;15.90;99.90;;;-141.84;85.73;20289.44;5034399;28;20224;-62
2023/08/29 08:15:10;;;;;;;6.60;6.00;;;16.00;99.90;;;-141.84;85.73;20271.16;5038193;28;20236;-63
2023/08/29 08:17:39;;;;;;;6.65;6.05;;;16.10;99.90;;;-141.84;84.24;20340.25;5037625;28;20204;-65
2023/08/29 08:20:11;;;;;;;6.22;5.63;;;16.20;99.90;;;-141.84;82.86;20342.28;5022209;28;20713;-63
2023/08/29 08:22:42;;;;;;;6.72;5.65;;;16.20;99.90;;;-141.84;83.52;20332.13;5013807;28;20360;-64
2023/08/29 08:25:10;;;;;;;6.95;5.93;;;16.20;99.90;;;-141.84;83.52;20378.88;5007628;28;20288;-64
2023/08/29 08:27:41;;;;;;;6.70;6.10;;;16.30;99.90;;;-141.84;81.91;20403.25;5022036;28;20317;-64
2023/08/29 08:30:10;;;;;;;8.13;6.32;;;16.40;99.90;;;-141.84;82.58;20401.22;5022157;28;20241;-66
2023/08/29 08:32:39;;;;;;;6.40;5.80;;;16.40;99.90;;;-141.84;82.74;20409.38;5014914;28;20220;-63
2023/08/29 08:35:10;;;;;;;6.38;5.88;;;16.50;99.90;;;-141.84;82.37;20433.75;5022249;28;20712;-64
2023/08/29 08:37:38;;;;;;;6.80;5.03;;;16.50;99.90;;;-141.84;81.59;20443.91;5040374;28;20321;-65
2023/08/29 08:40:10;;;;;;;6.15;5.07;;;16.60;99.90;;;-141.84;80.90;20494.75;5041850;28;20240;-64
2023/08/29 08:42:40;;;;;;;6.57;5.70;;;16.70;99.90;;;-141.84;80.74;20480.50;5034133;28;20278;-62
2023/08/29 08:45:10;;;;;;;5.88;5.22;;;16.70;99.90;;;-141.84;80.40;20488.63;5041638;28;20695;-63
2023/08/29 08:47:39;;;;;;;5.63;4.75;;;16.70;99.90;;;-141.84;81.63;20470.34;5036690;28;20558;-64
2023/08/29 08:50:10;;;;;;;6.18;5.63;;;16.70;99.90;;;-141.84;80.13;20462.22;5021941;28;20599;-64
2023/08/29 08:52:40;;;;;;;6.57;6.05;;;16.70;99.90;;;-141.84;79.69;20421.56;5013551;28;20245;-63
2023/08/29 08:55:10;;;;;;;6.55;5.95;;;16.70;99.90;;;-141.84;79.89;20447.97;5001760;28;20226;-63
2023/08/29 08:57:38;;;;;;;6.32;5.75;;;16.70;99.90;;;-141.84;79.79;20468.31;5002376;28;20722;-63
2023/08/29 09:00:08;;;;;;;6.70;6.15;;;16.70;99.90;;;-141.84;78.18;20490.66;5017035;28;20214;-63
2023/08/29 09:02:38;;;;;;;7.30;6.20;;;16.80;99.90;;;-141.84;76.36;20590.28;5014447;28;20732;-63
2023/08/29 09:05:08;;;;;;;6.47;5.97;;;16.90;99.90;;;-141.84;76.54;20584.19;5021385;28;20248;-65
2023/08/29 09:07:39;;;;;;;7.30;5.90;;;17.00;99.90;;;-141.84;73.66;20677.69;5032155;28;20638;-64
2023/08/29 09:10:11;;;;;;;8.27;6.60;;;17.30;99.90;;;-141.84;72.98;20734.59;5043714;28;20319;-64
2023/08/29 09:12:48;;;;;;;5.90;5.40;;;17.50;99.90;;;-141.84;72.45;20759.00;5037701;28;20271;-64
2023/08/29 09:15:19;;;;;;;6.80;6.20;;;17.70;99.90;;;-141.84;73.38;20722.41;5038938;28;20224;-64
2023/08/29 09:17:54;;;;;;;6.45;5.95;;;17.80;99.90;;;-141.84;70.85;20846.41;5039009;28;20256;-63
2023/08/29 09:20:29;;;;;;;6.82;6.32;;;18.00;99.90;;;-141.84;70.78;20856.56;5025421;28;20237;-64
2023/08/29 09:22:58;;;;;;;6.70;6.13;;;18.10;99.90;;;-141.84;70.16;20880.97;5024746;28;20241;-64
2023/08/29 09:25:27;;;;;;;6.38;5.88;;;18.10;99.90;;;-141.84;70.80;20878.94;5024775;28;20244;-64
2023/08/29 09:27:55;;;;;;;6.65;6.05;;;18.20;99.90;;;-141.84;70.00;20880.97;5025463;28;20614;-65
2023/08/29 09:30:24;;;;;;;6.60;6.10;;;18.20;99.90;;;-141.84;70.73;20870.81;5025165;28;20229;-63
2023/08/29 09:32:53;;;;;;;6.50;6.00;;;18.30;99.90;;;-141.84;71.80;20822.03;5019165;28;20738;-64
2023/08/29 09:35:24;;;;;;;8.70;7.88;;;18.30;99.90;;;-141.84;70.24;20848.44;5025454;28;20217;-64
2023/08/29 09:37:55;;;;;;;7.70;7.10;;;18.10;99.90;;;-141.84;70.94;20809.81;5024534;28;20732;-64
2023/08/29 09:40:24;;;;;;;6.78;6.28;;;18.00;99.90;;;-141.84;71.56;20817.94;5024756;28;20243;-64
2023/08/29 09:42:56;;;;;;;7.40;6.80;;;17.90;99.90;;;-141.84;72.93;20781.38;5024725;28;20230;-63
2023/08/29 09:45:24;;;;;;;6.95;6.38;;;17.90;99.90;;;-141.84;72.85;20736.63;5024612;28;20217;-64
2023/08/29 09:47:54;;;;;;;6.80;6.30;;;17.80;99.90;;;-141.84;74.17;20765.09;5025195;28;20210;-64
2023/08/29 09:50:24;;;;;;;6.68;6.10;;;17.90;99.90;;;-141.84;73.19;20761.03;5025098;28;20256;-64
2023/08/29 09:52:53;;;;;;;6.95;6.45;;;17.90;99.90;;;-141.84;71.94;20789.50;5018753;28;20222;-64
2023/08/29 09:55:23;;;;;;;6.65;6.15;;;18.00;99.90;;;-141.84;70.62;20844.38;5024685;28;20614;-64
2023/08/29 09:57:53;;;;;;;6.88;6.32;;;18.00;99.90;;;-141.84;70.43;20858.59;5024166;28;20226;-64
2023/08/29 10:00:24;;;;;;;6.70;6.18;;;18.00;99.90;;;-141.84;70.80;20826.09;5024423;28;20230;-63
2023/08/29 10:02:57;;;;;;;7.30;6.55;;;18.00;99.90;;;-141.84;72.67;20844.38;5020609;28;20392;-64
2023/08/29 10:05:33;;;;;;;6.97;6.38;;;18.00;99.90;;;-141.84;69.76;20911.47;5044955;28;20228;-64
2023/08/29 10:08:15;;;;;;;7.13;6.53;;;18.10;99.90;;;-141.84;70.24;20958.22;5044009;28;20723;-64
2023/08/29 10:10:45;;;;;;;6.57;6.07;;;18.20;99.90;;;-141.84;71.35;20862.69;5036349;28;20319;-63
2023/08/29 10:13:14;;;;;;;7.20;6.60;;;18.20;99.90;;;-141.84;70.17;20885.03;5039822;28;20268;-63
2023/08/29 10:15:46;;;;;;;7.32;6.70;;;18.10;99.90;;;-141.84;70.45;20935.88;5024255;28;20245;-64
2023/08/29 10:18:16;;;;;;;7.25;6.57;;;18.30;99.90;;;-141.84;69.72;20972.47;5023652;28;20226;-64
2023/08/29 10:20:46;;;;;;;7.45;6.75;;;18.30;99.90;;;-141.84;68.42;20962.28;5017258;28;20206;-64
2023/08/29 10:23:16;;;;;;;7.28;6.68;;;18.40;99.90;;;-141.84;69.27;20944.00;5024237;28;20295;-64
2023/08/29 10:25:46;;;;;;;6.90;6.40;;;18.40;99.90;;;-141.84;68.66;20939.94;5024203;28;20264;-64
2023/08/29 10:28:16;;;;;;;6.28;5.70;;;18.40;99.90;;;-141.84;68.53;20913.50;5023777;28;20240;-63